Time;durP1;ratioP1;P1;durP2;ratioP2;P2;SDS_P1;SDS_P2;PMS_P1;PMS_P2;Temp;Humidity;BMP_temperature;BMP_pressure;BME280_temperature;BME280_humidity;BME280_pressure;Samples;Min_cycle;Max_cycle;Signal;HPM_P1;HPM_P2
2022/01/02 00:01:12;;;;;;;8.10;7.70;;;;;;;4.97;100.00;101281.06;4967918;28;20480;-81
2022/01/02 00:03:40;;;;;;;8.65;8.25;;;;;;;4.95;100.00;101273.31;4964669;28;20026;-80
2022/01/02 00:06:07;;;;;;;8.30;7.90;;;;;;;5.02;100.00;101284.19;4975826;28;20035;-79
2022/01/02 00:08:41;;;;;;;8.65;8.25;;;;;;;4.91;100.00;101287.63;4974376;28;20018;-78
2022/01/02 00:11:11;;;;;;;8.20;7.80;;;;;;;4.86;100.00;101289.81;4968894;28;20031;-78
2022/01/02 00:13:45;;;;;;;8.02;7.68;;;;;;;4.86;100.00;101281.09;4974367;28;20030;-80
2022/01/02 00:16:14;;;;;;;8.13;7.72;;;;;;;4.80;100.00;101279.75;4967280;28;20110;-81
2022/01/02 00:18:48;;;;;;;8.27;7.88;;;;;;;4.76;100.00;101286.19;4966986;28;20030;-78
2022/01/02 00:21:16;;;;;;;;;;;;;;;4.80;100.00;101299.94;4975846;28;20027;-78
2022/01/02 00:23:59;;;;;;;8.07;7.68;;;;;;;4.74;100.00;101308.31;4974292;28;20008;-81
2022/01/02 00:26:36;;;;;;;8.00;7.60;;;;;;;4.68;100.00;101309.59;4974090;28;20117;-82
2022/01/02 00:29:05;;;;;;;8.30;7.90;;;;;;;4.64;100.00;101324.78;4975456;28;20027;-79
2022/01/02 00:31:32;;;;;;;7.70;7.40;;;;;;;4.53;100.00;101319.50;4973837;28;20039;-80
2022/01/02 00:33:58;;;;;;;8.35;7.95;;;;;;;4.40;100.00;101313.47;4975439;28;20174;-78
2022/01/02 00:36:23;;;;;;;8.45;8.05;;;;;;;4.41;100.00;101323.06;4975181;28;20504;-79
2022/01/02 00:38:49;;;;;;;8.32;7.93;;;;;;;4.31;100.00;101327.31;4973896;28;20030;-79
2022/01/02 00:41:22;;;;;;;8.45;8.05;;;;;;;4.25;100.00;101331.22;4975110;28;20089;-80
2022/01/02 00:44:14;;;;;;;8.57;8.18;;;;;;;4.21;100.00;101339.47;4970948;28;20405;-77
2022/01/02 00:46:51;;;;;;;8.27;7.88;;;;;;;4.14;100.00;101333.84;4963641;28;20062;-78
2022/01/02 00:49:20;;;;;;;9.43;8.93;;;;;;;4.02;100.00;101337.34;4959610;28;20027;-82
2022/01/02 00:51:50;;;;;;;8.75;8.35;;;;;;;3.97;100.00;101335.09;4973750;28;20029;-82
2022/01/02 00:54:22;;;;;;;9.00;8.55;;;;;;;3.86;100.00;101348.13;4973240;28;20051;-81
2022/01/02 00:56:51;;;;;;;8.65;8.25;;;;;;;3.79;100.00;101358.22;4975090;28;20081;-82
2022/01/02 00:59:28;;;;;;;8.30;7.90;;;;;;;3.71;100.00;101357.13;4966566;28;20033;-80
2022/01/02 01:02:02;;;;;;;8.70;8.30;;;;;;;3.58;100.00;101351.91;4973505;28;20018;-81
2022/01/02 01:04:30;;;;;;;8.43;8.02;;;;;;;3.53;100.00;101349.63;4973540;28;20031;-79
2022/01/02 01:07:01;;;;;;;9.13;8.63;;;;;;;3.38;100.00;101342.84;4974610;28;20031;-81
2022/01/02 01:09:29;;;;;;;8.80;8.40;;;;;;;3.36;100.00;101341.25;4973159;28;20504;-81
2022/01/02 01:11:58;;;;;;;9.07;8.63;;;;;;;3.26;100.00;101354.19;4971076;28;20049;-79
2022/01/02 01:14:24;;;;;;;8.93;8.50;;;;;;;3.28;100.00;101349.66;4972772;28;20054;-78
2022/01/02 01:16:50;;;;;;;8.50;8.10;;;;;;;3.20;100.00;101355.44;4973327;28;20035;-80
2022/01/02 01:19:16;;;;;;;8.27;7.88;;;;;;;3.13;100.00;101346.31;4973066;28;20031;-78
2022/01/02 01:21:41;;;;;;;8.75;8.35;;;;;;;3.12;100.00;101363.00;4973657;28;20037;-82
2022/01/02 01:24:07;;;;;;;8.20;7.80;;;;;;;3.08;100.00;101361.53;4973029;28;20555;-79
2022/01/02 01:26:32;;;;;;;8.40;8.00;;;;;;;3.03;100.00;101361.84;4967030;28;20489;-76
2022/01/02 01:28:58;;;;;;;8.60;8.20;;;;;;;3.03;100.00;101361.03;4963474;28;20022;-79
2022/01/02 01:31:23;;;;;;;8.55;8.15;;;;;;;2.96;100.00;101363.22;4972644;28;20027;-79
2022/01/02 01:33:49;;;;;;;9.00;8.55;;;;;;;2.92;100.00;101371.38;4974443;28;20023;-82
2022/01/02 01:36:16;;;;;;;8.43;8.02;;;;;;;2.86;100.00;101363.94;4974292;28;20030;-78
2022/01/02 01:38:41;;;;;;;8.40;8.00;;;;;;;2.83;100.00;101375.47;4973013;28;20481;-79
2022/01/02 01:41:15;;;;;;;8.55;8.15;;;;;;;2.80;100.00;101377.47;4971087;28;20030;-81
2022/01/02 01:43:53;;;;;;;8.52;8.13;;;;;;;2.81;100.00;101374.75;4972664;28;20555;-78
2022/01/02 01:46:19;;;;;;;8.80;8.40;;;;;;;2.83;100.00;101359.75;4972523;28;20053;-78
2022/01/02 01:48:51;;;;;;;8.77;8.38;;;;;;;2.82;100.00;101362.50;4974108;28;20034;-81
2022/01/02 01:51:17;;;;;;;8.57;8.18;;;;;;;2.85;100.00;101370.13;4972708;28;20030;-80
2022/01/02 01:53:42;;;;;;;8.45;8.05;;;;;;;2.84;100.00;101369.28;4972459;28;20452;-80
2022/01/02 01:56:08;;;;;;;8.57;8.18;;;;;;;2.82;100.00;101378.22;4966390;28;20062;-78
2022/01/02 01:58:33;;;;;;;8.65;8.25;;;;;;;2.80;100.00;101372.25;4972378;28;20023;-80
2022/01/02 02:01:01;;;;;;;8.57;8.18;;;;;;;2.92;100.00;101380.09;4972177;28;20027;-79
2022/01/02 02:03:26;;;;;;;8.50;8.10;;;;;;;2.81;100.00;101385.22;4972543;28;20031;-79
2022/01/02 02:05:52;;;;;;;9.10;8.65;;;;;;;2.79;100.00;101379.22;4973644;28;20031;-78
2022/01/02 02:08:20;;;;;;;8.40;8.00;;;;;;;2.71;100.00;101378.91;4970013;28;20035;-79
2022/01/02 02:10:54;;;;;;;8.65;8.25;;;;;;;2.69;100.00;101381.66;4966088;28;20440;-80
2022/01/02 02:13:20;;;;;;;9.50;9.00;;;;;;;2.64;100.00;101369.78;4972084;28;20062;-80
2022/01/02 02:15:46;;;;;;;8.30;7.90;;;;;;;2.65;100.00;101387.22;4972383;28;20459;-80
2022/01/02 02:18:12;;;;;;;8.57;8.18;;;;;;;2.60;100.00;101389.28;4972229;28;20031;-80
2022/01/02 02:20:38;;;;;;;8.52;8.13;;;;;;;2.55;100.00;101397.44;4971237;28;20515;-78
2022/01/02 02:23:05;;;;;;;8.93;8.50;;;;;;;2.53;100.00;101398.50;4962446;28;20097;-80
2022/01/02 02:25:33;;;;;;;8.60;8.20;;;;;;;2.58;100.00;101410.34;4972721;28;20556;-80
2022/01/02 02:28:07;;;;;;;8.75;8.35;;;;;;;2.55;100.00;101410.53;4977458;28;20030;-77
2022/01/02 02:30:34;;;;;;;;;;;;;;;2.51;100.00;101408.25;4976697;28;20397;-82
2022/01/02 02:33:01;;;;;;;8.45;8.05;;;;;;;2.44;100.00;101411.25;4976021;28;19925;-82
2022/01/02 02:35:29;;;;;;;8.60;8.20;;;;;;;2.37;100.00;101417.84;4976139;28;20113;-79
2022/01/02 02:37:54;;;;;;;7.90;7.60;;;;;;;2.32;100.00;101414.66;4975545;28;20030;-80
2022/01/02 02:40:22;;;;;;;9.10;8.60;;;;;;;2.28;100.00;101420.19;4975991;28;20572;-79
2022/01/02 02:43:02;;;;;;;8.60;8.20;;;;;;;2.19;100.00;101424.25;4975774;28;20066;-77
2022/01/02 02:51:27;;;;;;;8.48;8.07;;;;;;;2.11;100.00;101427.34;4961432;28;20073;-79
2022/01/02 02:53:53;;;;;;;8.00;7.60;;;;;;;2.11;100.00;101423.91;4976044;28;20042;-81
2022/01/02 02:56:29;;;;;;;8.98;8.52;;;;;;;2.02;100.00;101424.50;4975581;28;20131;-80
2022/01/02 02:58:57;;;;;;;8.50;8.10;;;;;;;1.94;100.00;101430.22;4976064;28;20023;-81
2022/01/02 03:01:28;;;;;;;8.77;8.38;;;;;;;1.96;100.00;101435.34;4977005;28;20073;-78
2022/01/02 03:03:54;;;;;;;8.95;8.45;;;;;;;1.89;100.00;101433.13;4975581;28;20489;-81
2022/01/02 03:06:20;;;;;;;8.65;8.25;;;;;;;1.81;100.00;101430.13;4966783;28;20030;-78
2022/01/02 03:08:47;;;;;;;8.48;8.07;;;;;;;1.81;100.00;101438.00;4974243;28;20019;-80
2022/01/02 03:11:15;;;;;;;8.82;8.43;;;;;;;1.85;100.00;101439.50;4973977;28;20027;-78
2022/01/02 03:13:43;;;;;;;8.50;8.10;;;;;;;1.81;100.00;101435.38;4975444;28;20385;-77
2022/01/02 03:16:09;;;;;;;8.48;8.07;;;;;;;1.94;100.00;101441.53;4974616;28;20129;-81
2022/01/02 03:18:35;;;;;;;8.60;8.20;;;;;;;1.96;100.00;101437.97;4975582;28;20056;-81
2022/01/02 03:21:01;;;;;;;8.55;8.15;;;;;;;1.91;100.00;101441.72;4975904;28;20022;-81
2022/01/02 03:23:26;;;;;;;8.63;8.23;;;;;;;2.02;100.00;101446.28;4975726;28;20448;-79
2022/01/02 03:25:52;;;;;;;9.07;8.57;;;;;;;2.03;100.00;101449.72;4975420;28;20031;-79
2022/01/02 03:28:17;;;;;;;8.50;8.10;;;;;;;1.94;100.00;101440.69;4975964;28;20038;-81
2022/01/02 03:30:43;;;;;;;8.65;8.25;;;;;;;1.90;100.00;101447.88;4977696;28;20492;-82
2022/01/02 03:33:09;;;;;;;8.63;8.23;;;;;;;1.97;100.00;101444.88;4975819;28;20031;-78
2022/01/02 03:35:34;;;;;;;8.15;7.75;;;;;;;1.88;100.00;101449.75;4976264;28;20034;-80
2022/01/02 03:38:01;;;;;;;8.35;7.95;;;;;;;1.87;100.00;101452.47;4971213;28;20055;-81
2022/01/02 03:40:27;;;;;;;8.23;7.82;;;;;;;1.81;100.00;101458.91;4977048;28;20110;-83
2022/01/02 03:42:53;;;;;;;8.40;8.00;;;;;;;1.76;100.00;101466.19;4976686;28;20054;-78
2022/01/02 03:45:18;;;;;;;8.65;8.25;;;;;;;1.78;100.00;101463.50;4975875;28;20062;-80
2022/01/02 03:47:44;;;;;;;8.63;8.23;;;;;;;1.74;100.00;101459.41;4976313;28;20109;-79
2022/01/02 03:50:09;;;;;;;8.98;8.57;;;;;;;1.75;100.00;101474.16;4976553;28;20094;-79
2022/01/02 03:52:35;;;;;;;8.65;8.25;;;;;;;1.70;100.00;101461.38;4976694;28;20553;-79
2022/01/02 03:55:01;;;;;;;8.32;7.93;;;;;;;1.65;100.00;101459.03;4978110;28;20035;-77
2022/01/02 03:57:26;;;;;;;8.60;8.20;;;;;;;1.72;100.00;101456.88;4977588;28;20142;-81
2022/01/02 03:59:52;;;;;;;7.90;7.60;;;;;;;1.59;100.00;101471.63;4976341;28;20485;-79
2022/01/02 04:02:19;;;;;;;8.73;8.32;;;;;;;1.65;100.00;101459.03;4968556;28;20023;-79
2022/01/02 04:04:44;;;;;;;8.77;8.38;;;;;;;1.63;100.00;101466.13;4977095;28;20037;-80
2022/01/02 04:07:10;;;;;;;8.60;8.20;;;;;;;1.54;100.00;101469.31;4976644;28;20433;-81
2022/01/02 04:09:35;;;;;;;8.50;8.10;;;;;;;1.58;100.00;101489.09;4976715;28;20103;-81
2022/01/02 04:12:01;;;;;;;8.30;7.90;;;;;;;1.37;100.00;101467.72;4978802;28;20019;-80
2022/01/02 04:14:26;;;;;;;8.50;8.10;;;;;;;1.43;100.00;101481.34;4976933;28;20030;-81
2022/01/02 04:16:52;;;;;;;8.05;7.70;;;;;;;1.42;100.00;101480.50;4966779;28;20038;-79
2022/01/02 04:19:17;;;;;;;8.73;8.32;;;;;;;1.30;100.00;101484.69;4976548;28;20459;-77
2022/01/02 04:21:43;;;;;;;8.90;8.45;;;;;;;1.37;100.00;101493.00;4977064;28;20027;-78
2022/01/02 04:24:08;;;;;;;8.30;7.90;;;;;;;1.24;100.00;101490.28;4975290;28;20081;-78
2022/01/02 04:26:34;;;;;;;8.60;8.20;;;;;;;1.29;100.00;101500.47;4974765;28;20022;-79
2022/01/02 04:28:59;;;;;;;8.48;8.07;;;;;;;1.24;100.00;101495.50;4972098;28;20023;-80
2022/01/02 04:31:25;;;;;;;8.35;7.95;;;;;;;1.11;100.00;101497.19;4965139;28;20035;-80
2022/01/02 04:33:51;;;;;;;8.35;7.95;;;;;;;1.17;100.00;101503.81;4977182;28;20030;-79
2022/01/02 04:36:16;;;;;;;8.82;8.43;;;;;;;1.15;100.00;101500.44;4978475;28;20169;-79
2022/01/02 04:38:42;;;;;;;9.05;8.55;;;;;;;1.10;100.00;101508.53;4977548;28;20023;-78
2022/01/02 04:41:09;;;;;;;8.30;7.90;;;;;;;1.08;100.00;101526.09;4977086;28;20035;-80
2022/01/02 04:43:35;;;;;;;8.40;8.00;;;;;;;1.05;100.00;101523.66;4976530;28;20448;-79
2022/01/02 04:46:00;;;;;;;8.73;8.32;;;;;;;1.05;100.00;101523.66;4976913;28;20031;-82
2022/01/02 04:48:26;;;;;;;8.48;8.07;;;;;;;0.95;100.00;101518.13;4977479;28;20083;-80
2022/01/02 04:50:52;;;;;;;8.55;8.15;;;;;;;0.99;100.00;101535.31;4979183;28;20058;-79
2022/01/02 04:53:22;;;;;;;8.95;8.48;;;;;;;0.98;100.00;101527.56;4977737;28;20440;-80
2022/01/02 04:55:49;;;;;;;8.48;8.07;;;;;;;1.09;100.00;101535.59;4979155;28;20027;-79
2022/01/02 04:58:15;;;;;;;8.63;8.23;;;;;;;0.97;100.00;101539.78;4972064;28;20065;-80
2022/01/02 05:00:40;;;;;;;8.95;8.55;;;;;;;0.96;100.00;101545.09;4977058;28;20054;-81
2022/01/02 05:03:06;;;;;;;8.70;8.27;;;;;;;0.92;100.00;101557.50;4978175;28;20023;-77
2022/01/02 05:05:31;;;;;;;8.90;8.50;;;;;;;0.95;100.00;101551.22;4979671;28;20035;-80
2022/01/02 05:07:57;;;;;;;8.65;8.25;;;;;;;0.88;100.00;101550.75;4981191;28;20532;-77
2022/01/02 05:10:22;;;;;;;8.70;8.30;;;;;;;0.83;100.00;101543.19;4980222;28;20023;-79
2022/01/02 05:12:48;;;;;;;8.52;8.13;;;;;;;0.87;100.00;101563.91;4978467;28;20022;-79
2022/01/02 05:15:13;;;;;;;8.65;8.23;;;;;;;0.85;100.00;101563.16;4978249;28;20062;-78
2022/01/02 05:17:39;;;;;;;8.95;8.55;;;;;;;0.79;100.00;101574.78;4978688;28;20027;-78
2022/01/02 05:20:05;;;;;;;8.30;7.90;;;;;;;0.88;100.00;101573.41;4977712;28;20034;-82
2022/01/02 05:22:31;;;;;;;9.00;8.60;;;;;;;0.71;100.00;101567.38;4978689;28;20077;-78
2022/01/02 05:24:56;;;;;;;9.10;8.68;;;;;;;0.73;100.00;101578.56;4976649;28;20042;-78
2022/01/02 05:27:22;;;;;;;8.50;8.10;;;;;;;0.67;100.00;101584.16;4968626;28;20019;-77
2022/01/02 05:29:47;;;;;;;9.02;8.60;;;;;;;0.67;100.00;101575.47;4978782;28;20023;-80
2022/01/02 05:32:13;;;;;;;9.48;8.98;;;;;;;0.58;100.00;101574.19;4973448;28;20113;-78
2022/01/02 05:34:38;;;;;;;8.70;8.30;;;;;;;0.50;100.00;101571.16;4976030;28;20106;-81
2022/01/02 05:37:04;;;;;;;9.20;8.70;;;;;;;0.54;100.00;101581.38;4976074;28;20086;-80
2022/01/02 05:39:29;;;;;;;8.68;8.27;;;;;;;0.50;100.00;101579.00;4976482;28;20023;-81
2022/01/02 05:41:55;;;;;;;9.40;8.90;;;;;;;0.46;100.00;101577.50;4976342;28;20488;-81
2022/01/02 05:44:20;;;;;;;9.52;9.02;;;;;;;0.46;100.00;101591.41;4974071;28;20046;-81
2022/01/02 05:46:47;;;;;;;9.00;8.60;;;;;;;0.42;100.00;101595.09;4975644;28;20465;-83
2022/01/02 05:49:13;;;;;;;8.82;8.43;;;;;;;0.48;100.00;101605.19;4983451;28;20034;-79
2022/01/02 05:51:39;;;;;;;8.95;8.52;;;;;;;0.43;100.00;101603.75;4976612;28;20026;-78
2022/01/02 05:54:05;;;;;;;9.13;8.73;;;;;;;0.42;100.00;101610.75;4969001;28;20047;-81
2022/01/02 05:56:31;;;;;;;9.32;8.82;;;;;;;0.42;100.00;101613.34;4975226;28;20033;-78
2022/01/02 05:58:56;;;;;;;9.13;8.73;;;;;;;0.45;100.00;101594.09;4971998;28;20026;-79
2022/01/02 06:01:22;;;;;;;9.70;9.15;;;;;;;0.43;100.00;101601.97;4972619;28;20107;-81
2022/01/02 06:03:47;;;;;;;8.85;8.45;;;;;;;0.45;100.00;101602.75;4972330;28;20035;-79
2022/01/02 06:06:13;;;;;;;9.50;9.00;;;;;;;0.48;100.00;101606.97;4973503;28;20027;-82
2022/01/02 06:08:39;;;;;;;9.38;8.88;;;;;;;0.61;100.00;101608.00;4973028;28;20027;-80
2022/01/02 06:11:04;;;;;;;9.25;8.75;;;;;;;1.14;100.00;101606.75;4974236;28;20023;-81
2022/01/02 06:13:32;;;;;;;8.88;8.48;;;;;;;1.88;100.00;101621.59;4973469;28;20030;-80
2022/01/02 06:15:58;;;;;;;8.27;7.88;;;;;;;2.37;100.00;101622.06;4975325;28;20092;-78
2022/01/02 06:18:24;;;;;;;8.82;8.35;;;;;;;2.63;100.00;101617.81;4974714;28;20494;-80
2022/01/02 06:20:49;;;;;;;8.27;7.88;;;;;;;3.15;100.00;101626.75;4974782;28;20035;-80
2022/01/02 06:23:16;;;;;;;8.18;7.78;;;;;;;3.31;100.00;101632.69;4958376;28;20436;-83
2022/01/02 06:25:43;;;;;;;8.10;7.70;;;;;;;3.70;100.00;101644.09;4973180;28;20137;-77
2022/01/02 06:28:08;;;;;;;7.90;7.50;;;;;;;3.94;100.00;101647.66;4972208;28;20361;-79
2022/01/02 06:30:34;;;;;;;7.63;7.32;;;;;;;4.64;99.24;101652.47;4973227;28;20034;-81
2022/01/02 06:32:59;;;;;;;7.65;7.28;;;;;;;4.89;96.96;101651.53;4972684;28;20109;-78
2022/01/02 06:35:27;;;;;;;8.35;7.95;;;;;;;5.43;94.84;101649.28;4973425;28;20030;-79
2022/01/02 06:37:53;;;;;;;7.50;7.20;;;;;;;6.27;90.16;101648.19;4972511;28;20058;-78
2022/01/02 06:40:19;;;;;;;7.75;7.40;;;;;;;7.27;84.34;101654.28;4972029;28;20120;-77
2022/01/02 06:42:45;;;;;;;7.80;7.43;;;;;;;9.03;75.04;101666.50;4970656;28;20031;-77
2022/01/02 06:45:12;;;;;;;8.98;8.57;;;;;;;10.45;67.17;101669.28;4972162;28;20030;-81
2022/01/02 06:47:37;;;;;;;9.45;8.95;;;;;;;11.35;62.70;101659.69;4973281;28;20489;-82
2022/01/02 06:50:04;;;;;;;10.07;9.57;;;;;;;12.17;55.97;101666.47;4967784;28;20031;-80
2022/01/02 06:52:30;;;;;;;9.75;9.25;;;;;;;12.78;53.24;101670.78;4971651;28;20027;-81
2022/01/02 06:54:55;;;;;;;10.43;9.93;;;;;;;13.33;51.15;101680.94;4971578;28;20046;-78
2022/01/02 06:57:21;;;;;;;10.35;9.85;;;;;;;14.48;48.93;101681.69;4973007;28;20106;-80
2022/01/02 06:59:47;;;;;;;10.10;9.60;;;;;;;13.75;47.36;101685.28;4971836;28;20393;-78
2022/01/02 07:02:13;;;;;;;9.82;9.40;;;;;;;14.97;45.40;101686.81;4971995;28;20026;-82
2022/01/02 07:04:38;;;;;;;11.02;10.43;;;;;;;15.22;44.75;101693.69;4963875;28;20040;-80
2022/01/02 07:07:04;;;;;;;10.30;9.80;;;;;;;15.31;44.11;101691.81;4972016;28;20023;-82
2022/01/02 07:09:31;;;;;;;10.00;9.50;;;;;;;15.55;41.55;101685.44;4973323;28;20500;-79
2022/01/02 07:11:57;;;;;;;10.88;10.38;;;;;;;16.57;40.53;101687.47;4976801;28;20039;-78
2022/01/02 07:14:26;;;;;;;10.60;10.10;;;;;;;15.96;40.34;101694.81;4975581;28;20027;-81
2022/01/02 07:16:52;;;;;;;10.73;10.23;;;;;;;15.72;40.32;101690.53;4975768;28;20028;-80
2022/01/02 07:19:18;;;;;;;11.02;10.48;;;;;;;16.52;39.42;101699.75;4962778;28;20394;-79
2022/01/02 07:21:43;;;;;;;10.82;10.32;;;;;;;16.31;38.97;101692.47;4979081;28;20035;-80
2022/01/02 07:24:09;;;;;;;10.73;10.20;;;;;;;16.95;38.34;101697.25;4976654;28;20481;-79
2022/01/02 07:26:34;;;;;;;10.52;10.02;;;;;;;16.80;38.33;101690.06;4975688;28;20038;-81
2022/01/02 07:29:00;;;;;;;10.45;9.95;;;;;;;16.89;37.91;101696.16;4976657;28;20031;-81
2022/01/02 07:31:25;;;;;;;10.55;10.05;;;;;;;17.73;36.67;101693.78;4975212;28;20049;-78
2022/01/02 07:33:51;;;;;;;10.20;9.70;;;;;;;17.64;35.47;101686.84;4976810;28;20035;-77
2022/01/02 07:36:16;;;;;;;10.27;9.77;;;;;;;17.69;36.47;101682.53;4975123;28;20038;-79
2022/01/02 07:38:42;;;;;;;10.63;10.13;;;;;;;17.73;34.82;101696.44;4974840;28;20066;-83
2022/01/02 07:41:07;;;;;;;10.23;9.73;;;;;;;18.26;34.51;101699.53;4976403;28;20074;-79
2022/01/02 07:43:32;;;;;;;9.70;9.30;;;;;;;17.97;33.51;101694.38;4974889;28;20038;-81
2022/01/02 07:45:58;;;;;;;10.43;9.93;;;;;;;18.25;33.27;101697.06;4971632;28;20027;-77
2022/01/02 07:48:23;;;;;;;10.65;10.15;;;;;;;18.11;33.70;101686.22;4975935;28;20456;-78
2022/01/02 07:50:49;;;;;;;10.93;10.43;;;;;;;18.36;33.63;101693.81;4975055;28;20118;-76
2022/01/02 07:53:14;;;;;;;10.90;10.40;;;;;;;17.82;34.47;101681.03;4974343;28;20039;-80
2022/01/02 07:55:40;;;;;;;9.73;9.32;;;;;;;17.52;35.24;101686.53;4975788;28;20078;-78
2022/01/02 07:58:05;;;;;;;9.63;9.23;;;;;;;18.45;32.96;101681.88;4974655;28;20043;-79
2022/01/02 08:00:31;;;;;;;10.35;9.85;;;;;;;18.45;32.58;101685.41;4967088;28;20110;-80
2022/01/02 08:02:56;;;;;;;9.57;9.18;;;;;;;17.99;33.25;101678.88;4975825;28;20037;-80
2022/01/02 08:05:22;;;;;;;10.45;9.95;;;;;;;18.54;32.71;101685.25;4974115;28;20412;-78
2022/01/02 08:07:48;;;;;;;9.70;9.30;;;;;;;18.55;32.57;101681.53;4974501;28;20034;-79
2022/01/02 08:10:13;;;;;;;10.18;9.68;;;;;;;18.04;32.98;101692.56;4969381;28;20482;-79
2022/01/02 08:12:39;;;;;;;9.85;9.38;;;;;;;19.27;31.93;101689.06;4973557;28;20054;-78
2022/01/02 08:15:05;;;;;;;9.50;9.10;;;;;;;19.05;32.17;101688.38;4962767;28;20042;-77
2022/01/02 08:17:30;;;;;;;10.20;9.70;;;;;;;18.81;32.37;101691.63;4974552;28;20043;-82
2022/01/02 08:19:56;;;;;;;9.18;8.77;;;;;;;18.09;33.20;101698.19;4974258;28;20027;-80
2022/01/02 08:22:22;;;;;;;10.10;9.60;;;;;;;19.06;32.52;101690.03;4974805;28;20061;-78
2022/01/02 08:24:48;;;;;;;9.90;9.40;;;;;;;18.79;32.16;101683.72;4975636;28;20041;-78
2022/01/02 08:27:13;;;;;;;10.50;10.00;;;;;;;18.38;32.34;101697.16;4975861;28;20111;-78
2022/01/02 08:29:39;;;;;;;9.45;9.05;;;;;;;18.08;33.39;101688.47;4974253;28;20023;-79
2022/01/02 08:32:04;;;;;;;10.55;10.05;;;;;;;16.87;35.44;101692.81;4975345;28;20027;-81
2022/01/02 08:34:30;;;;;;;9.35;8.95;;;;;;;17.37;34.60;101691.94;4974057;28;20109;-81
2022/01/02 08:36:55;;;;;;;9.40;9.00;;;;;;;17.03;35.66;101687.25;4975565;28;20391;-80
2022/01/02 08:39:21;;;;;;;10.82;10.27;;;;;;;15.91;37.24;101683.81;4974133;28;20031;-78
2022/01/02 08:41:46;;;;;;;10.52;10.02;;;;;;;17.60;34.19;101680.19;4974144;28;20316;-79
2022/01/02 08:44:12;;;;;;;10.00;9.50;;;;;;;18.46;33.24;101684.38;4975266;28;20041;-76
2022/01/02 08:46:38;;;;;;;9.23;8.82;;;;;;;17.60;34.43;101682.88;4975404;28;20114;-82
2022/01/02 08:49:04;;;;;;;9.88;9.38;;;;;;;19.54;32.56;101674.63;4975160;28;20030;-80
2022/01/02 08:51:29;;;;;;;9.40;9.00;;;;;;;18.46;33.26;101678.19;4973883;28;20031;-77
2022/01/02 08:53:55;;;;;;;9.20;8.80;;;;;;;18.73;32.26;101681.84;4973861;28;20043;-80
2022/01/02 08:56:21;;;;;;;9.50;9.10;;;;;;;19.08;30.45;101677.19;4967977;28;20023;-80
2022/01/02 08:58:46;;;;;;;10.18;9.68;;;;;;;18.55;31.21;101686.91;4973671;28;20026;-79
2022/01/02 09:01:12;;;;;;;9.50;9.10;;;;;;;17.92;32.05;101684.19;4973795;28;20077;-78
2022/01/02 09:03:37;;;;;;;9.50;9.10;;;;;;;17.99;31.98;101678.88;4972056;28;20126;-80
2022/01/02 09:06:03;;;;;;;9.95;9.48;;;;;;;17.79;32.58;101674.22;4973782;28;20026;-81
2022/01/02 09:08:28;;;;;;;9.75;9.25;;;;;;;17.65;33.34;101675.91;4973787;28;20042;-78
2022/01/02 09:10:54;;;;;;;9.05;8.65;;;;;;;18.38;31.48;101679.16;4965043;28;20022;-79
2022/01/02 09:13:23;;;;;;;9.50;9.10;;;;;;;18.58;31.12;101678.41;4973696;28;20034;-82
2022/01/02 09:15:49;;;;;;;9.50;9.10;;;;;;;18.46;30.91;101686.22;4973335;28;20102;-78
2022/01/02 09:18:14;;;;;;;9.93;9.43;;;;;;;18.30;30.88;101673.13;4974744;28;20388;-77
2022/01/02 09:20:41;;;;;;;10.20;9.70;;;;;;;17.31;33.11;101675.78;4974371;28;20071;-78
2022/01/02 09:23:06;;;;;;;9.75;9.32;;;;;;;17.44;32.43;101675.09;4974342;28;20093;-79
2022/01/02 09:25:32;;;;;;;10.02;9.52;;;;;;;17.76;32.27;101668.38;4958889;28;20481;-79
2022/01/02 09:27:57;;;;;;;9.30;8.90;;;;;;;17.17;33.14;101666.78;4972250;28;20485;-81
2022/01/02 09:30:23;;;;;;;9.40;9.00;;;;;;;15.26;35.76;101656.72;4972792;28;20037;-82
2022/01/02 09:32:48;;;;;;;10.00;9.50;;;;;;;11.68;42.55;101644.84;4972063;28;20477;-80
2022/01/02 09:35:14;;;;;;;10.50;10.00;;;;;;;11.69;44.00;101653.66;4972648;28;20396;-81
2022/01/02 09:37:39;;;;;;;10.00;9.50;;;;;;;11.20;45.21;101640.78;4972896;28;20046;-79
2022/01/02 09:40:06;;;;;;;10.40;9.90;;;;;;;10.89;46.79;101648.25;4972711;28;20035;-80
2022/01/02 09:42:33;;;;;;;10.57;10.07;;;;;;;10.46;47.22;101640.94;4974038;28;20031;-82
2022/01/02 09:44:59;;;;;;;11.40;10.80;;;;;;;9.79;48.98;101636.66;4973651;28;20027;-79
2022/01/02 09:47:24;;;;;;;11.85;11.25;;;;;;;9.73;49.58;101645.19;4972441;28;20097;-82
2022/01/02 09:49:50;;;;;;;11.85;11.25;;;;;;;8.95;52.13;101637.22;4972603;28;20139;-81
2022/01/02 09:52:17;;;;;;;11.70;11.10;;;;;;;9.51;51.68;101635.72;4969611;28;20034;-80
2022/01/02 09:54:42;;;;;;;12.27;11.57;;;;;;;8.97;52.93;101632.66;4972779;28;20050;-81
2022/01/02 09:57:08;;;;;;;12.50;11.80;;;;;;;8.94;53.24;101629.41;4972243;28;20090;-79
2022/01/02 09:59:34;;;;;;;12.77;12.05;;;;;;;8.53;54.04;101626.00;4973314;28;20035;-81
2022/01/02 10:02:01;;;;;;;13.05;12.25;;;;;;;8.44;54.97;101624.97;4972348;28;20066;-85
2022/01/02 10:04:41;;;;;;;11.48;10.88;;;;;;;7.83;56.66;101622.28;4971151;28;20031;-83
2022/01/02 10:07:31;;;;;;;11.98;11.35;;;;;;;8.08;56.18;101621.06;4962938;28;20031;-82
2022/01/02 10:09:58;;;;;;;13.13;12.32;;;;;;;7.70;57.79;101622.47;4959821;28;20133;-81
2022/01/02 10:12:29;;;;;;;13.70;12.80;;;;;;;7.18;59.04;101612.78;4971966;28;20023;-80
2022/01/02 10:15:18;;;;;;;12.20;11.50;;;;;;;7.41;59.20;101619.63;4971681;28;20050;-81
2022/01/02 10:17:56;;;;;;;12.90;12.10;;;;;;;7.24;60.04;101601.72;4971621;28;20106;-79
2022/01/02 10:20:45;;;;;;;12.70;11.90;;;;;;;7.21;60.61;101594.06;4969389;28;20050;-82
2022/01/02 10:23:24;;;;;;;12.18;11.48;;;;;;;7.38;59.56;101590.84;4966855;28;20070;-80
2022/01/02 10:26:01;;;;;;;12.18;11.48;;;;;;;7.19;60.83;101596.81;4972222;28;20490;-81
2022/01/02 10:28:36;;;;;;;12.40;11.65;;;;;;;7.25;61.26;101602.56;4970929;28;20035;-79
2022/01/02 10:31:01;;;;;;;12.00;11.32;;;;;;;7.03;62.89;101598.22;4972148;28;20037;-79
2022/01/02 10:33:44;;;;;;;11.48;10.88;;;;;;;7.05;62.40;101591.00;4972272;28;20042;-82
2022/01/02 10:36:09;;;;;;;11.75;11.10;;;;;;;7.07;62.58;101586.44;4955226;28;20501;-81
2022/01/02 10:38:35;;;;;;;13.13;12.30;;;;;;;6.79;63.74;101582.59;4971448;28;20081;-83
2022/01/02 10:41:00;;;;;;;12.57;11.77;;;;;;;6.47;64.68;101575.47;4970189;28;20026;-80
2022/01/02 10:43:31;;;;;;;11.13;10.52;;;;;;;6.46;65.62;101575.56;4971758;28;20475;-78
2022/01/02 10:46:02;;;;;;;11.52;10.90;;;;;;;6.17;67.21;101570.84;4976950;28;20121;-80
2022/01/02 10:48:34;;;;;;;12.88;12.07;;;;;;;6.41;66.67;101567.22;4976115;28;20413;-80
2022/01/02 10:51:02;;;;;;;12.02;11.32;;;;;;;6.31;67.56;101580.25;4974951;28;20078;-80
2022/01/02 10:53:29;;;;;;;11.80;11.20;;;;;;;6.47;65.84;101575.47;4975833;28;20049;-78
2022/01/02 10:55:54;;;;;;;12.10;11.40;;;;;;;6.57;64.63;101575.56;4975741;28;20122;-80
2022/01/02 10:58:20;;;;;;;13.02;12.23;;;;;;;6.62;65.14;101566.34;4975191;28;20544;-80
2022/01/02 11:00:46;;;;;;;12.57;11.80;;;;;;;6.56;64.90;101572.09;4975461;28;20460;-82
2022/01/02 11:03:13;;;;;;;12.50;11.70;;;;;;;6.59;65.53;101571.84;4970557;28;20027;-80
2022/01/02 11:05:39;;;;;;;12.73;11.93;;;;;;;6.52;64.27;101564.53;4974956;28;20106;-79
2022/01/02 11:08:05;;;;;;;12.20;11.50;;;;;;;6.44;64.57;101553.78;4976575;28;20552;-83
2022/01/02 11:10:33;;;;;;;12.48;11.73;;;;;;;6.15;65.62;101559.56;4975267;28;20038;-81
2022/01/02 11:12:59;;;;;;;11.30;10.70;;;;;;;6.29;65.99;101555.84;4963031;28;20046;-81
2022/01/02 11:15:27;;;;;;;12.13;11.43;;;;;;;6.51;65.78;101558.44;4958627;28;20104;-81
2022/01/02 11:17:53;;;;;;;11.68;11.07;;;;;;;6.53;64.99;101560.94;4968894;28;20046;-80
2022/01/02 11:20:20;;;;;;;11.57;10.98;;;;;;;6.43;65.21;101558.22;4975272;28;20055;-79
2022/01/02 11:23:10;;;;;;;11.02;10.43;;;;;;;6.56;64.82;101548.38;4974976;28;20027;-80
2022/01/02 11:25:42;;;;;;;9.80;9.40;;;;;;;6.42;65.52;101543.38;4974939;28;20054;-81
2022/01/02 11:28:25;;;;;;;11.13;10.52;;;;;;;6.53;65.53;101538.06;4976327;28;20045;-82